Latest Weather Observations for Latrobe Valley

IDV60801

Issued at 9:02 am EDT Thursday 2 April 2015 (issued every 30 minutes, with the page automatically refreshed every 10 minutes)

About weather observations | Map of weather stations | Latest weather observations for VIC | Other Formats
Station Details ID: 085280 Name: LATROBE VALLEY AIRPORT Lat: -38.21 Lon: 146.47 Height: 55.7 m
Data from the previous 72 hours. | See also: Recent months at Latrobe Valley
Date/Time
EDT
Temp
°C
App
Temp
°C
Dew
Point
Rel
Hum
%
Delta-T
°C
Wind Press
QNH
hPa
Press
MSL
hPa
Rain
since 9 am
mm
Dir
 
Spd
km/h
Gust
km/h
Spd
kts
Gust
kts
02/09:00am 12.3 7.2 10.5 89 0.9 WNW 28 35 15 19 1019.8 - -
02/08:30am 12.4 6.0 10.6 89 0.9 W 35 46 19 25 1019.2 1019.1 1.4
02/08:00am 12.9 8.5 11.6 92 0.7 WNW 26 37 14 20 1018.5 1018.4 1.4
02/07:30am 12.8 8.4 11.7 93 0.6 W 26 35 14 19 1018.2 1018.1 1.4
02/07:00am 12.5 9.2 11.6 94 0.5 WNW 20 28 11 15 1017.9 1017.8 1.4
02/06:30am 12.8 8.4 10.3 85 1.3 W 24 32 13 17 1017.5 1017.4 1.4
02/06:06am 12.9 8.6 12.1 95 0.4 W 26 39 14 21 1017.2 1017.1 1.4
02/06:00am 12.9 8.7 12.4 97 0.3 W 26 32 14 17 1017.0 1016.9 1.4
02/05:53am 13.0 9.2 12.5 97 0.3 W 24 32 13 17 1016.9 1016.8 1.2
02/05:44am 13.2 9.6 13.0 99 0.1 W 24 35 13 19 1016.8 1016.7 1.2
02/05:30am 13.4 9.1 13.2 99 0.1 WSW 28 35 15 19 1016.6 1016.5 1.0
02/05:20am 13.5 10.8 13.5 100 0.0 WSW 20 26 11 14 1016.4 1016.3 0.8
02/05:03am 13.6 9.8 13.6 100 0.0 WSW 26 32 14 17 1016.0 1015.9 0.8
02/05:00am 13.7 9.9 13.5 99 0.1 WSW 26 33 14 18 1015.9 1015.8 0.8
02/04:59am 13.7 9.9 13.5 99 0.1 WSW 26 33 14 18 1015.9 1015.8 0.6
02/04:38am 14.2 9.4 13.9 98 0.2 WSW 32 41 17 22 1015.8 1015.7 0.4
02/04:36am 14.2 9.3 13.7 97 0.3 WSW 32 41 17 22 1015.8 1015.7 0.4
02/04:30am 14.5 9.7 13.9 96 0.3 WSW 32 37 17 20 1015.6 1015.5 0.2
02/04:29am 14.5 9.6 13.7 95 0.4 WSW 32 39 17 21 1015.6 1015.5 0.2
02/04:08am 15.1 9.8 14.1 94 0.6 WSW 35 50 19 27 1015.0 1014.9 0.0
02/04:00am 15.4 10.2 14.6 95 0.5 WSW 35 46 19 25 1014.5 1014.4 0.0
02/03:30am 18.6 16.0 14.9 79 2.2 W 22 33 12 18 1014.0 1013.9 0.0
02/03:00am 18.9 16.2 14.6 76 2.5 W 22 30 12 16 1014.3 1014.2 0.0
02/02:30am 18.4 16.5 14.3 77 2.4 WSW 17 20 9 11 1014.3 1014.2 0.0
02/02:00am 18.7 14.7 14.2 75 2.6 SW 28 37 15 20 1013.9 1013.8 0.0
02/01:30am 18.7 15.6 13.3 71 3.1 WSW 22 28 12 15 1013.5 1013.4 0.0
02/01:00am 19.3 14.5 12.8 66 3.7 SW 30 48 16 26 1012.6 1012.6 0.0
02/12:30am 19.8 17.7 13.7 68 3.5 NNW 17 46 9 25 1012.0 1012.0 0.0
02/12:29am 19.7 18.2 14.1 70 3.2 NNW 15 46 8 25 1012.0 1012.0 0.0
02/12:00am 19.7 19.5 14.7 73 2.9 NNE 9 11 5 6 1011.8 1011.8 0.0
 
Date/Time
EDT
Temp
°C
App
Temp
°C
Dew
Point
Rel
Hum
%
Delta-T
°C
Wind Press
QNH
hPa
Press
MSL
hPa
Rain
since 9 am
mm
Dir
 
Spd
km/h
Gust
km/h
Spd
kts
Gust
kts
01/11:30pm 19.4 20.9 14.6 74 2.8 CALM 0 0 0 0 1012.3 1012.3 0.0
01/11:00pm 19.7 20.9 14.9 74 2.8 NE 2 7 1 4 1012.4 1012.4 0.0
01/10:30pm 20.1 20.2 14.5 70 3.3 NNE 7 9 4 5 1012.4 1012.4 0.0
01/10:00pm 20.6 20.5 14.0 66 3.8 NE 7 9 4 5 1012.6 1012.6 0.0
01/09:30pm 21.0 21.1 13.9 64 4.1 NE 6 9 3 5 1012.6 1012.6 0.0
01/09:00pm 22.0 21.4 13.6 59 4.9 NE 9 11 5 6 1012.6 1012.6 0.0
01/08:30pm 22.5 21.8 13.3 56 5.3 NNE 9 11 5 6 1012.6 1012.6 0.0
01/08:00pm 23.1 22.1 13.3 54 5.7 N 11 13 6 7 1012.9 1012.9 0.0
01/07:30pm 24.1 22.9 12.7 49 6.6 NW 11 13 6 7 1012.8 1012.8 0.0
01/07:00pm 25.2 23.5 12.4 45 7.4 NW 13 20 7 11 1012.8 1012.8 0.0
01/06:30pm 26.0 23.6 12.5 43 7.8 NNW 17 24 9 13 1012.9 1012.9 0.0
01/06:00pm 25.5 25.4 14.0 49 6.8 NNW 7 9 4 5 1012.9 1012.9 0.0
01/05:30pm 26.6 25.1 13.0 43 8.0 NW 13 17 7 9 1012.8 1012.8 0.0
01/05:00pm 27.2 24.7 12.4 40 8.6 NW 17 24 9 13 1012.8 1012.8 0.0
01/04:30pm 27.8 25.3 12.2 38 9.1 NNW 17 24 9 13 1012.8 1012.8 0.0
01/04:00pm 28.2 28.0 13.7 41 8.6 NNE 7 15 4 8 1013.4 1013.3 0.0
01/03:30pm 28.1 27.0 12.0 36 9.3 SW 9 15 5 8 1014.0 1013.9 0.0
01/03:00pm 28.6 27.6 13.3 39 9.1 W 11 17 6 9 1014.5 1014.4 0.0
01/02:30pm 28.6 28.3 14.4 41 8.6 WSW 9 17 5 9 1014.7 1014.6 0.0
01/02:00pm 28.0 28.0 14.3 43 8.2 SSE 7 9 4 5 1015.1 1015.0 0.0
01/01:30pm 26.3 27.4 13.4 45 7.6 CALM 0 6 0 3 1015.8 1015.7 0.0
01/01:00pm 25.8 26.5 14.6 50 6.7 SE 4 7 2 4 1016.5 1016.4 0.0
01/12:30pm 23.5 23.4 13.4 53 5.9 SE 6 7 3 4 1017.1 1017.0 0.0
01/12:00pm 23.3 24.6 15.1 60 4.9 NNE 2 7 1 4 1017.6 1017.5 0.0
01/11:30am 22.4 24.3 15.7 66 4.0 CALM 0 6 0 3 1018.0 1017.9 0.0
01/11:00am 20.4 21.4 16.4 78 2.4 NE 6 9 3 5 1018.6 1018.5 0.0
01/10:30am 17.3 19.4 17.3 100 0.0 WNW 2 6 1 3 1019.1 1019.0 0.0
01/10:28am 16.6 18.5 16.6 100 0.0 WNW 2 6 1 3 1019.2 1019.1 0.0
01/10:26am 16.3 18.4 16.3 100 0.0 CALM 0 6 0 3 1019.2 1019.1 0.0
01/10:00am 14.8 16.0 14.8 100 0.0 W 2 7 1 4 1019.7 1019.6 0.0
01/09:30am 13.4 13.1 13.4 100 0.0 SW 7 11 4 6 1020.0 1019.9 0.0
01/09:00am 12.3 12.3 12.3 100 0.0 WSW 4 7 2 4 1019.9 1019.8 0.0
01/08:30am 11.5 10.8 11.5 100 0.0 SW 6 7 3 4 1020.0 1019.9 0.0
01/08:00am 11.2 11.6 11.2 100 0.0 CALM 0 0 0 0 1020.1 1020.0 0.0
01/07:30am 10.8 11.1 10.8 100 0.0 CALM 0 0 0 0 1020.1 1020.0 0.0
01/07:00am 11.3 11.7 11.3 100 0.0 CALM 0 2 0 1 1020.1 1020.0 0.0
01/06:30am 11.9 12.1 11.9 100 0.0 S 2 7 1 4 1019.9 1019.8 0.0
01/06:00am 12.1 11.6 12.1 100 0.0 SSW 6 9 3 5 1020.1 1020.0 0.0
01/05:30am 12.2 12.9 12.2 100 0.0 CALM 0 6 0 3 1020.1 1020.0 0.0
01/05:00am 12.2 12.5 12.2 100 0.0 SE 2 9 1 5 1020.1 1020.0 0.0
01/04:30am 13.5 14.6 13.5 100 0.0 CALM 0 0 0 0 1020.2 1020.1 0.0
01/04:00am 13.5 13.5 13.5 100 0.0 ENE 6 7 3 4 1020.6 1020.5 0.0
01/03:30am 14.1 14.3 14.1 100 0.0 ESE 6 9 3 5 1021.0 1020.9 0.0
01/03:00am 14.6 14.9 14.6 100 0.0 ENE 6 9 3 5 1021.5 1021.4 0.0
01/02:51am 14.6 14.9 14.6 100 0.0 ENE 6 9 3 5 1021.6 1021.5 0.0
01/02:30am 14.4 14.5 14.4 100 0.0 E 7 9 4 5 1021.8 1021.7 0.0
01/02:16am 14.5 14.8 14.5 100 0.0 E 6 7 3 4 1022.0 1021.9 0.0
01/02:01am 14.5 14.8 14.5 100 0.0 E 6 7 3 4 1022.1 1022.0 0.0
01/02:00am 14.5 15.2 14.5 100 0.0 ENE 4 7 2 4 1022.2 1022.1 0.0
01/01:53am 14.6 16.1 14.6 100 0.0 CALM 0 7 0 4 1022.3 1022.2 0.0
01/01:30am 14.5 14.8 14.5 100 0.0 NE 6 6 3 3 1022.6 1022.5 0.0
01/01:00am 14.5 15.6 14.5 100 0.0 ENE 2 6 1 3 1022.7 1022.6 0.0
01/12:30am 14.2 15.2 14.2 100 0.0 ENE 2 7 1 4 1022.9 1022.8 0.0
01/12:19am 14.3 15.7 14.3 100 0.0 CALM 0 0 0 0 1023.0 1022.9 0.0
01/12:06am 14.2 15.5 14.2 100 0.0 CALM 0 0 0 0 1023.1 1023.0 0.0
01/12:00am 14.1 15.0 14.1 100 0.0 ENE 2 7 1 4 1023.1 1023.0 0.0
 
Date/Time
EDT
Temp
°C
App
Temp
°C
Dew
Point
Rel
Hum
%
Delta-T
°C
Wind Press
QNH
hPa
Press
MSL
hPa
Rain
since 9 am
mm
Dir
 
Spd
km/h
Gust
km/h
Spd
kts
Gust
kts
31/11:54pm 14.1 14.3 14.1 100 0.0 ENE 6 7 3 4 1023.2 1023.1 0.0
31/11:49pm 14.0 14.5 14.0 100 0.0 ENE 4 7 2 4 1023.2 1023.1 0.0
31/11:30pm 14.2 14.4 14.2 100 0.0 ENE 6 9 3 5 1023.4 1023.3 0.0
31/11:00pm 14.1 14.1 14.1 100 0.0 NE 7 9 4 5 1023.7 1023.6 0.0
31/10:30pm 14.5 14.6 14.5 100 0.0 ENE 7 9 4 5 1023.7 1023.6 0.0
31/10:00pm 15.5 15.8 15.0 97 0.3 ENE 7 11 4 6 1023.8 1023.7 0.0
31/09:30pm 16.0 15.9 15.0 94 0.6 ENE 9 11 5 6 1023.8 1023.7 0.0
31/09:00pm 16.6 16.2 15.3 92 0.8 ENE 11 17 6 9 1023.6 1023.5 0.0
31/08:30pm 17.3 16.6 15.3 88 1.2 ENE 13 20 7 11 1023.5 1023.4 0.0
31/08:00pm 18.0 16.9 15.3 84 1.6 ENE 15 20 8 11 1023.3 1023.2 0.0
31/07:30pm 18.9 17.4 15.2 79 2.2 ENE 17 26 9 14 1023.1 1023.0 0.0
31/07:00pm 20.1 18.0 14.7 71 3.2 NE 19 24 10 13 1022.8 1022.7 0.0
31/06:30pm 21.7 19.9 14.4 63 4.3 ENE 17 26 9 14 1022.5 1022.4 0.0
31/06:00pm 23.8 22.4 13.4 52 6.0 NNE 13 17 7 9 1022.1 1022.0 0.0
31/05:30pm 24.7 23.8 13.6 50 6.5 NE 11 15 6 8 1022.1 1022.0 0.0
31/05:00pm 25.1 24.2 12.7 46 7.2 NNE 9 13 5 7 1022.3 1022.2 0.0
31/04:30pm 25.4 24.8 12.3 44 7.5 NE 7 13 4 7 1022.5 1022.4 0.0
31/04:00pm 25.3 25.0 13.2 47 7.0 N 7 11 4 6 1022.6 1022.5 0.0
31/03:30pm 25.0 24.8 13.5 48 6.7 NE 7 13 4 7 1022.8 1022.7 0.0
31/03:00pm 24.7 23.7 13.3 49 6.6 NE 11 19 6 10 1022.9 1022.8 0.0
31/02:30pm 24.3 23.1 12.9 49 6.6 NE 11 15 6 8 1023.3 1023.2 0.0
31/02:00pm 23.2 22.0 12.8 52 6.0 ENE 11 17 6 9 1023.8 1023.7 0.0
31/01:30pm 22.7 21.0 12.3 52 5.9 NE 13 19 7 10 1024.2 1024.1 0.0
31/01:00pm 22.2 20.5 12.5 54 5.5 ENE 13 19 7 10 1024.7 1024.6 0.0
31/12:30pm 21.4 19.3 12.3 56 5.1 NE 15 20 8 11 1025.3 1025.2 0.0
31/12:00pm 20.8 18.6 12.2 58 4.8 NE 15 20 8 11 1026.1 1026.0 0.0
31/11:30am 19.2 18.5 13.2 68 3.4 NE 9 13 5 7 1026.9 1026.8 0.0
31/11:00am 18.3 18.3 13.6 74 2.7 ENE 6 11 3 6 1027.1 1027.0 0.0
31/10:30am 15.9 15.5 13.0 83 1.6 NNE 7 9 4 5 1027.1 1027.0 0.0
31/10:00am 13.5 14.6 13.5 100 0.0 CALM 0 6 0 3 1027.3 1027.2 0.0
31/09:42am 12.5 13.3 12.5 100 0.0 CALM 0 0 0 0 1027.3 1027.2 0.0
31/09:41am 12.5 13.3 12.5 100 0.0 CALM 0 0 0 0 1027.2 1027.1 0.0
31/09:30am 12.3 13.0 12.3 100 0.0 CALM 0 0 0 0 1027.3 1027.2 0.0
31/09:00am 10.4 10.6 10.4 100 0.0 CALM 0 0 0 0 1027.1 1027.0 0.0
31/08:30am 9.1 8.9 9.1 100 0.0 CALM 0 0 0 0 1026.8 1026.7 0.0
31/08:00am 8.2 7.8 8.2 100 0.0 CALM 0 0 0 0 1026.6 1026.5 0.0
31/07:30am 7.4 6.8 7.4 100 0.0 CALM 0 0 0 0 1026.4 1026.3 0.0
31/07:23am 6.8 6.1 6.8 100 0.0 CALM 0 0 0 0 1026.2 1026.1 0.0
31/07:20am 6.9 6.2 6.9 100 0.0 CALM 0 0 0 0 1026.2 1026.1 0.0
31/07:00am 7.0 6.3 7.0 100 0.0 CALM 0 0 0 0 1026.1 1026.0 0.0
31/06:30am 7.7 7.2 7.7 100 0.0 CALM 0 0 0 0 1025.9 1025.8 0.0
31/06:00am 7.4 6.8 7.4 100 0.0 CALM 0 0 0 0 1025.6 1025.5 0.0
31/05:48am 8.7 8.4 8.7 100 0.0 CALM 0 0 0 0 1025.6 1025.5 0.0
31/05:43am 8.8 8.5 8.8 100 0.0 CALM 0 0 0 0 1025.6 1025.5 0.0
31/05:30am 8.7 8.4 8.7 100 0.0 CALM 0 0 0 0 1025.7 1025.6 0.0
31/05:00am 8.3 7.9 8.3 100 0.0 CALM 0 0 0 0 1025.7 1025.6 0.0
31/04:30am 9.0 8.8 9.0 100 0.0 CALM 0 0 0 0 1025.7 1025.6 0.0
31/04:00am 9.9 9.9 9.9 100 0.0 CALM 0 0 0 0 1025.7 1025.6 0.0
31/03:38am 9.9 9.9 9.9 100 0.0 CALM 0 0 0 0 1025.9 1025.8 0.0
31/03:30am 9.9 9.9 9.9 100 0.0 CALM 0 0 0 0 1025.9 1025.8 0.0
31/03:06am 9.8 9.8 9.8 100 0.0 CALM 0 0 0 0 1026.1 1026.0 0.0
31/03:00am 10.2 10.3 10.2 100 0.0 CALM 0 0 0 0 1026.1 1026.0 0.0
31/02:42am 10.5 10.7 10.5 100 0.0 CALM 0 0 0 0 1026.2 1026.1 0.0
31/02:30am 10.6 10.8 10.6 100 0.0 CALM 0 0 0 0 1026.3 1026.2 0.0
31/02:00am 10.9 11.2 10.9 100 0.0 CALM 0 0 0 0 1026.3 1026.2 0.0
31/01:54am 10.9 11.2 10.9 100 0.0 CALM 0 0 0 0 1026.3 1026.2 0.0
31/01:30am 11.4 11.8 11.4 100 0.0 CALM 0 0 0 0 1026.3 1026.2 0.0
31/01:00am 11.6 12.1 11.6 100 0.0 CALM 0 0 0 0 1026.4 1026.3 0.0
31/12:30am 11.3 11.5 10.5 95 0.4 CALM 0 0 0 0 1026.4 1026.3 0.0
31/12:00am 13.7 13.3 12.4 92 0.7 ESE 6 9 3 5 1026.6 1026.5 0.0
 
Date/Time
EDT
Temp
°C
App
Temp
°C
Dew
Point
Rel
Hum
%
Delta-T
°C
Wind Press
QNH
hPa
Press
MSL
hPa
Rain
since 9 am
mm
Dir
 
Spd
km/h
Gust
km/h
Spd
kts
Gust
kts
30/11:30pm 14.4 13.8 12.4 88 1.1 ESE 7 9 4 5 1026.8 1026.7 0.0
30/11:00pm 15.0 14.4 12.3 84 1.5 ESE 7 11 4 6 1026.9 1026.8 0.0
30/10:30pm 15.9 15.4 12.5 80 1.9 E 7 9 4 5 1026.9 1026.8 0.0
30/10:00pm 16.7 15.8 12.5 76 2.3 ENE 9 13 5 7 1026.9 1026.8 0.0
30/09:30pm 17.5 16.7 12.8 74 2.6 NE 9 13 5 7 1026.8 1026.7 0.0
30/09:00pm 17.9 18.5 11.9 68 3.3 CALM 0 0 0 0 1026.6 1026.5 0.0
30/08:30pm 17.9 17.5 12.4 70 3.1 NNE 6 9 3 5 1026.3 1026.2 0.0
30/08:00pm 16.8 16.4 12.3 75 2.5 N 6 9 3 5 1025.8 1025.7 0.0
30/07:30pm 18.0 16.4 11.6 66 3.5 SW 11 15 6 8 1025.2 1025.1 0.0
30/07:00pm 18.9 16.6 11.7 63 4.0 SW 15 19 8 10 1024.7 1024.6 0.0
30/06:30pm 20.4 17.4 12.1 59 4.6 SW 19 24 10 13 1024.1 1024.0 0.0
30/06:00pm 21.5 19.2 12.9 58 4.9 SW 17 20 9 11 1023.6 1023.5 0.0
30/05:30pm 22.1 19.2 12.9 56 5.3 SW 20 28 11 15 1023.2 1023.1 0.0
30/05:00pm 22.8 19.9 13.0 54 5.6 SW 20 28 11 15 1022.9 1022.8 0.0
30/04:30pm 23.1 19.5 13.0 53 5.8 SW 24 32 13 17 1022.7 1022.6 0.0
30/04:00pm 23.6 19.9 12.6 50 6.3 SW 24 33 13 18 1022.6 1022.5 0.0
30/03:30pm 25.4 22.4 11.9 43 7.7 WSW 19 30 10 16 1022.6 1022.5 0.0
30/03:00pm 25.0 21.5 10.8 41 7.9 WSW 20 28 11 15 1022.7 1022.6 0.0
30/02:30pm 24.5 22.1 11.5 44 7.4 WSW 15 26 8 14 1022.8 1022.7 0.0
30/02:00pm 23.3 20.8 12.3 50 6.2 SW 17 22 9 12 1023.2 1023.1 0.0
30/01:30pm 23.4 21.4 12.7 51 6.1 SW 15 22 8 12 1023.5 1023.4 0.0
30/01:00pm 21.9 21.1 11.6 52 5.7 W 7 13 4 7 1023.9 1023.8 0.0
30/12:30pm 21.3 21.0 11.6 54 5.4 WSW 4 11 2 6 1024.3 1024.2 0.0
30/12:00pm 20.2 19.1 10.6 54 5.2 SW 7 13 4 7 1024.5 1024.4 0.0
30/11:30am 19.8 20.3 12.8 64 4.0 WNW 2 7 1 4 1024.8 1024.7 0.0
30/11:00am 17.9 18.3 12.6 71 2.9 SE 2 7 1 4 1025.1 1025.0 0.0
30/10:30am 15.5 15.1 12.3 81 1.8 SW 6 9 3 5 1025.1 1025.0 0.0
30/10:00am 13.9 13.5 13.1 95 0.4 WSW 7 11 4 6 1025.0 1024.9 0.0
30/09:30am 11.5 10.8 11.5 100 0.0 WSW 6 7 3 4 1024.8 1024.7 0.0

Other Formats:

Comma delimited format used in spreadsheet applications
http://www.bom.gov.au/fwo/IDV60801/IDV60801.94891.axf

JavaScript Object Notation format (JSON) in row-major order
http://www.bom.gov.au/fwo/IDV60801/IDV60801.94891.json